sensor_id;sensor_type;location;lat;lon;timestamp;pressure;altitude;pressure_sealevel;temperature;humidity
8140;BME280;4111;50.972;7.072;2022-08-19T00:01:43;100768.16;;;21.19;76.45
8140;BME280;4111;50.972;7.072;2022-08-19T00:04:20;100779.78;;;21.07;77.08
8140;BME280;4111;50.972;7.072;2022-08-19T00:06:47;100781.41;;;21.08;77.22
8140;BME280;4111;50.972;7.072;2022-08-19T00:09:16;100786.03;;;21.22;77.15
8140;BME280;4111;50.972;7.072;2022-08-19T00:11:44;100783.13;;;21.27;76.94
8140;BME280;4111;50.972;7.072;2022-08-19T00:14:12;100779.69;;;21.21;76.98
8140;BME280;4111;50.972;7.072;2022-08-19T00:16:40;100774.81;;;21.18;77.01
8140;BME280;4111;50.972;7.072;2022-08-19T00:19:09;100779.34;;;21.14;76.92
8140;BME280;4111;50.972;7.072;2022-08-19T00:21:35;100776.03;;;21.03;77.31
8140;BME280;4111;50.972;7.072;2022-08-19T00:24:07;100778.72;;;20.94;77.35
8140;BME280;4111;50.972;7.072;2022-08-19T00:26:35;100777.34;;;20.83;78.15
8140;BME280;4111;50.972;7.072;2022-08-19T00:29:03;100783.63;;;20.75;78.57
8140;BME280;4111;50.972;7.072;2022-08-19T00:31:30;100784.31;;;20.80;78.56
8140;BME280;4111;50.972;7.072;2022-08-19T00:33:57;100789.78;;;20.94;78.38
8140;BME280;4111;50.972;7.072;2022-08-19T00:36:24;100781.88;;;21.02;78.01
8140;BME280;4111;50.972;7.072;2022-08-19T00:38:51;100787.09;;;21.03;78.05
8140;BME280;4111;50.972;7.072;2022-08-19T00:41:20;100780.38;;;20.95;78.02
8140;BME280;4111;50.972;7.072;2022-08-19T00:44:24;100776.75;;;20.86;77.95
8140;BME280;4111;50.972;7.072;2022-08-19T00:46:54;100769.16;;;20.69;78.82
8140;BME280;4111;50.972;7.072;2022-08-19T00:52:04;100780.91;;;20.38;79.49
8140;BME280;4111;50.972;7.072;2022-08-19T00:54:32;100778.41;;;20.28;80.34
8140;BME280;4111;50.972;7.072;2022-08-19T00:56:59;100780.28;;;20.41;79.97
8140;BME280;4111;50.972;7.072;2022-08-19T00:59:28;100784.50;;;20.62;79.62
8140;BME280;4111;50.972;7.072;2022-08-19T01:02:16;100779.56;;;20.50;79.54
8140;BME280;4111;50.972;7.072;2022-08-19T01:04:43;100776.94;;;20.31;80.29
8140;BME280;4111;50.972;7.072;2022-08-19T01:07:09;100786.28;;;20.21;80.15
8140;BME280;4111;50.972;7.072;2022-08-19T01:09:42;100789.47;;;20.14;81.12
8140;BME280;4111;50.972;7.072;2022-08-19T01:12:09;100784.56;;;20.11;81.05
8140;BME280;4111;50.972;7.072;2022-08-19T01:14:37;100787.22;;;20.16;81.05
8140;BME280;4111;50.972;7.072;2022-08-19T01:17:06;100777.59;;;20.14;80.95
8140;BME280;4111;50.972;7.072;2022-08-19T01:19:37;100783.34;;;20.04;81.24
8140;BME280;4111;50.972;7.072;2022-08-19T01:22:35;100777.22;;;20.07;81.80
8140;BME280;4111;50.972;7.072;2022-08-19T01:25:06;100777.28;;;20.15;81.40
8140;BME280;4111;50.972;7.072;2022-08-19T01:27:42;100777.19;;;20.20;81.36
8140;BME280;4111;50.972;7.072;2022-08-19T01:30:18;100782.31;;;20.13;80.83
8140;BME280;4111;50.972;7.072;2022-08-19T01:32:45;100771.94;;;19.96;81.26
8140;BME280;4111;50.972;7.072;2022-08-19T01:35:13;100778.06;;;19.93;81.63
8140;BME280;4111;50.972;7.072;2022-08-19T01:37:55;100763.28;;;19.89;81.76
8140;BME280;4111;50.972;7.072;2022-08-19T01:40:26;100763.88;;;19.86;81.73
8140;BME280;4111;50.972;7.072;2022-08-19T01:42:53;100773.38;;;19.80;82.29
8140;BME280;4111;50.972;7.072;2022-08-19T01:45:22;100766.53;;;19.91;82.57
8140;BME280;4111;50.972;7.072;2022-08-19T01:47:49;100758.25;;;19.91;82.43
8140;BME280;4111;50.972;7.072;2022-08-19T01:50:29;100756.97;;;19.89;82.51
8140;BME280;4111;50.972;7.072;2022-08-19T01:52:55;100752.97;;;19.81;82.65
8140;BME280;4111;50.972;7.072;2022-08-19T01:55:33;100754.03;;;19.71;83.11
8140;BME280;4111;50.972;7.072;2022-08-19T01:58:02;100766.41;;;19.69;82.90
8140;BME280;4111;50.972;7.072;2022-08-19T02:00:31;100765.22;;;19.61;83.32
8140;BME280;4111;50.972;7.072;2022-08-19T02:02:58;100762.56;;;19.56;83.19
8140;BME280;4111;50.972;7.072;2022-08-19T02:05:27;100771.25;;;19.49;83.83
8140;BME280;4111;50.972;7.072;2022-08-19T02:07:56;100781.41;;;19.49;83.86
8140;BME280;4111;50.972;7.072;2022-08-19T02:10:23;100778.06;;;19.66;83.96
8140;BME280;4111;50.972;7.072;2022-08-19T02:12:49;100777.88;;;19.76;82.96
8140;BME280;4111;50.972;7.072;2022-08-19T02:15:19;100775.00;;;19.67;82.92
8140;BME280;4111;50.972;7.072;2022-08-19T02:17:46;100775.41;;;19.60;83.08
8140;BME280;4111;50.972;7.072;2022-08-19T02:20:13;100769.00;;;19.51;83.27
8140;BME280;4111;50.972;7.072;2022-08-19T02:22:41;100771.13;;;19.40;83.67
8140;BME280;4111;50.972;7.072;2022-08-19T02:25:12;100765.00;;;19.30;84.39
8140;BME280;4111;50.972;7.072;2022-08-19T02:27:41;100772.44;;;19.29;84.53
8140;BME280;4111;50.972;7.072;2022-08-19T02:30:12;100768.78;;;19.48;84.20
8140;BME280;4111;50.972;7.072;2022-08-19T02:32:39;100770.53;;;19.57;84.16
8140;BME280;4111;50.972;7.072;2022-08-19T02:35:20;100767.66;;;19.62;83.50
8140;BME280;4111;50.972;7.072;2022-08-19T02:37:47;100776.03;;;19.57;83.42
8140;BME280;4111;50.972;7.072;2022-08-19T02:40:33;100771.13;;;19.54;83.18
8140;BME280;4111;50.972;7.072;2022-08-19T02:43:02;100780.00;;;19.51;83.29
8140;BME280;4111;50.972;7.072;2022-08-19T02:45:37;100780.69;;;19.43;83.61
8140;BME280;4111;50.972;7.072;2022-08-19T02:48:07;100781.91;;;19.37;84.25
8140;BME280;4111;50.972;7.072;2022-08-19T02:50:48;100791.69;;;19.29;84.33
8140;BME280;4111;50.972;7.072;2022-08-19T02:53:19;100790.50;;;19.21;84.57
8140;BME280;4111;50.972;7.072;2022-08-19T02:55:46;100785.19;;;19.39;84.66
8140;BME280;4111;50.972;7.072;2022-08-19T02:58:14;100785.41;;;19.42;84.49
8140;BME280;4111;50.972;7.072;2022-08-19T03:00:52;100775.59;;;19.36;84.05
8140;BME280;4111;50.972;7.072;2022-08-19T03:03:20;100774.88;;;19.31;84.17
8140;BME280;4111;50.972;7.072;2022-08-19T03:05:46;100783.78;;;19.28;84.56
8140;BME280;4111;50.972;7.072;2022-08-19T03:08:23;100778.47;;;19.17;84.57
8140;BME280;4111;50.972;7.072;2022-08-19T03:10:50;100780.78;;;19.10;84.82
8140;BME280;4111;50.972;7.072;2022-08-19T03:13:19;100780.47;;;18.98;85.67
8140;BME280;4111;50.972;7.072;2022-08-19T03:15:47;100784.94;;;18.94;86.00
8140;BME280;4111;50.972;7.072;2022-08-19T03:18:14;100779.84;;;19.01;85.72
8140;BME280;4111;50.972;7.072;2022-08-19T03:20:45;100791.06;;;19.05;85.80
8140;BME280;4111;50.972;7.072;2022-08-19T03:23:12;100798.50;;;19.04;85.60
8140;BME280;4111;50.972;7.072;2022-08-19T03:25:42;100794.72;;;19.00;85.27
8140;BME280;4111;50.972;7.072;2022-08-19T03:28:10;100790.31;;;18.99;85.37
8140;BME280;4111;50.972;7.072;2022-08-19T03:30:38;100798.59;;;18.99;85.41
8140;BME280;4111;50.972;7.072;2022-08-19T03:33:10;100800.59;;;18.93;85.75
8140;BME280;4111;50.972;7.072;2022-08-19T03:35:43;100804.19;;;18.94;85.68
8140;BME280;4111;50.972;7.072;2022-08-19T03:38:11;100803.13;;;18.90;86.23
8140;BME280;4111;50.972;7.072;2022-08-19T03:40:38;100804.31;;;19.02;85.88
8140;BME280;4111;50.972;7.072;2022-08-19T03:43:04;100797.81;;;19.12;85.33
8140;BME280;4111;50.972;7.072;2022-08-19T03:45:31;100809.28;;;19.00;85.63
8140;BME280;4111;50.972;7.072;2022-08-19T03:47:58;100806.94;;;18.94;85.20
8140;BME280;4111;50.972;7.072;2022-08-19T03:50:24;100808.44;;;18.86;85.70
8140;BME280;4111;50.972;7.072;2022-08-19T03:52:51;100804.41;;;18.78;85.94
8140;BME280;4111;50.972;7.072;2022-08-19T03:55:18;100802.75;;;18.77;85.97
8140;BME280;4111;50.972;7.072;2022-08-19T03:57:45;100805.22;;;18.79;86.12
8140;BME280;4111;50.972;7.072;2022-08-19T04:00:14;100814.13;;;18.90;86.11
8140;BME280;4111;50.972;7.072;2022-08-19T04:02:41;100808.63;;;18.90;86.04
8140;BME280;4111;50.972;7.072;2022-08-19T04:05:23;100805.13;;;19.03;85.63
8140;BME280;4111;50.972;7.072;2022-08-19T04:07:53;100813.03;;;18.91;85.79
8140;BME280;4111;50.972;7.072;2022-08-19T04:10:20;100810.72;;;18.79;86.03
8140;BME280;4111;50.972;7.072;2022-08-19T04:12:46;100810.50;;;18.75;85.93
8140;BME280;4111;50.972;7.072;2022-08-19T04:15:14;100805.09;;;18.70;86.29
8140;BME280;4111;50.972;7.072;2022-08-19T04:17:41;100817.81;;;18.66;86.58
8140;BME280;4111;50.972;7.072;2022-08-19T04:20:08;100821.38;;;18.67;86.72
8140;BME280;4111;50.972;7.072;2022-08-19T04:22:34;100828.72;;;18.90;86.62
8140;BME280;4111;50.972;7.072;2022-08-19T04:25:01;100831.91;;;18.97;86.26
8140;BME280;4111;50.972;7.072;2022-08-19T04:27:28;100827.91;;;18.90;85.77
8140;BME280;4111;50.972;7.072;2022-08-19T04:29:55;100832.38;;;18.86;85.89
8140;BME280;4111;50.972;7.072;2022-08-19T04:32:21;100834.16;;;18.76;86.38
8140;BME280;4111;50.972;7.072;2022-08-19T04:34:48;100831.34;;;18.62;86.84
8140;BME280;4111;50.972;7.072;2022-08-19T04:37:36;100831.25;;;18.68;86.85
8140;BME280;4111;50.972;7.072;2022-08-19T04:40:05;100830.31;;;18.58;87.29
8140;BME280;4111;50.972;7.072;2022-08-19T04:42:50;100828.06;;;18.79;87.04
8140;BME280;4111;50.972;7.072;2022-08-19T04:45:17;100835.84;;;18.91;86.52
8140;BME280;4111;50.972;7.072;2022-08-19T04:47:48;100837.50;;;18.92;86.25
8140;BME280;4111;50.972;7.072;2022-08-19T04:50:25;100840.53;;;18.91;85.89
8140;BME280;4111;50.972;7.072;2022-08-19T04:52:52;100840.31;;;18.87;86.31
8140;BME280;4111;50.972;7.072;2022-08-19T04:55:19;100839.50;;;18.87;86.37
8140;BME280;4111;50.972;7.072;2022-08-19T04:57:46;100845.81;;;18.87;86.69
8140;BME280;4111;50.972;7.072;2022-08-19T05:00:12;100837.78;;;18.91;86.96
8140;BME280;4111;50.972;7.072;2022-08-19T05:02:39;100846.75;;;19.29;86.72
8140;BME280;4111;50.972;7.072;2022-08-19T05:05:06;100845.59;;;19.49;85.62
8140;BME280;4111;50.972;7.072;2022-08-19T05:07:33;100842.50;;;19.37;85.01
8140;BME280;4111;50.972;7.072;2022-08-19T05:10:00;100852.97;;;19.21;85.31
8140;BME280;4111;50.972;7.072;2022-08-19T05:12:27;100855.47;;;19.03;85.45
8140;BME280;4111;50.972;7.072;2022-08-19T05:14:55;100857.50;;;18.98;85.87
8140;BME280;4111;50.972;7.072;2022-08-19T05:17:23;100857.56;;;18.93;86.34
8140;BME280;4111;50.972;7.072;2022-08-19T05:19:54;100855.41;;;18.90;86.30
8140;BME280;4111;50.972;7.072;2022-08-19T05:22:41;100861.88;;;18.99;86.36
8140;BME280;4111;50.972;7.072;2022-08-19T05:25:11;100858.16;;;19.22;86.16
8140;BME280;4111;50.972;7.072;2022-08-19T05:27:40;100864.94;;;19.30;85.64
8140;BME280;4111;50.972;7.072;2022-08-19T05:30:08;100868.88;;;19.24;85.77
8140;BME280;4111;50.972;7.072;2022-08-19T05:32:35;100859.91;;;19.18;85.63
8140;BME280;4111;50.972;7.072;2022-08-19T05:35:02;100863.06;;;19.12;85.73
8140;BME280;4111;50.972;7.072;2022-08-19T05:37:29;100865.88;;;19.07;86.09
8140;BME280;4111;50.972;7.072;2022-08-19T05:39:56;100868.34;;;19.08;86.32
8140;BME280;4111;50.972;7.072;2022-08-19T05:42:22;100877.69;;;19.07;86.73
8140;BME280;4111;50.972;7.072;2022-08-19T05:44:50;100876.41;;;19.18;86.17
8140;BME280;4111;50.972;7.072;2022-08-19T05:47:17;100870.22;;;19.27;86.15
8140;BME280;4111;50.972;7.072;2022-08-19T05:49:47;100871.88;;;19.28;86.11
8140;BME280;4111;50.972;7.072;2022-08-19T05:52:16;100867.56;;;19.21;86.44
8140;BME280;4111;50.972;7.072;2022-08-19T05:54:45;100862.75;;;19.27;86.14
8140;BME280;4111;50.972;7.072;2022-08-19T05:57:18;100854.00;;;19.25;86.79
8140;BME280;4111;50.972;7.072;2022-08-19T05:59:44;100859.72;;;19.29;86.77
8140;BME280;4111;50.972;7.072;2022-08-19T06:02:18;100859.13;;;19.32;86.69
8140;BME280;4111;50.972;7.072;2022-08-19T06:04:45;100860.44;;;19.34;87.55
8140;BME280;4111;50.972;7.072;2022-08-19T06:07:11;100850.38;;;19.44;87.32
8140;BME280;4111;50.972;7.072;2022-08-19T06:09:39;100852.13;;;19.53;86.97
8140;BME280;4111;50.972;7.072;2022-08-19T06:12:06;100846.63;;;19.67;87.32
8140;BME280;4111;50.972;7.072;2022-08-19T06:14:34;100849.50;;;19.76;87.21
8140;BME280;4111;50.972;7.072;2022-08-19T06:17:07;100849.28;;;19.86;87.69
8140;BME280;4111;50.972;7.072;2022-08-19T06:19:34;100852.97;;;19.95;88.18
8140;BME280;4111;50.972;7.072;2022-08-19T06:22:06;100843.38;;;20.07;88.45
8140;BME280;4111;50.972;7.072;2022-08-19T06:24:34;100848.16;;;20.15;88.62
8140;BME280;4111;50.972;7.072;2022-08-19T06:27:02;100856.31;;;20.20;89.21
8140;BME280;4111;50.972;7.072;2022-08-19T06:29:29;100855.41;;;20.25;89.93
8140;BME280;4111;50.972;7.072;2022-08-19T06:31:58;100861.00;;;20.33;89.80
8140;BME280;4111;50.972;7.072;2022-08-19T06:34:27;100857.19;;;20.43;90.15
8140;BME280;4111;50.972;7.072;2022-08-19T06:36:55;100858.78;;;20.58;89.59
8140;BME280;4111;50.972;7.072;2022-08-19T06:39:24;100855.13;;;20.63;89.54
8140;BME280;4111;50.972;7.072;2022-08-19T06:41:54;100857.34;;;20.74;89.45
8140;BME280;4111;50.972;7.072;2022-08-19T06:44:27;100865.88;;;20.87;88.91
8140;BME280;4111;50.972;7.072;2022-08-19T06:46:57;100879.75;;;20.95;89.07
8140;BME280;4111;50.972;7.072;2022-08-19T06:49:24;100859.34;;;21.05;88.25
8140;BME280;4111;50.972;7.072;2022-08-19T06:51:51;100866.38;;;21.11;88.28
8140;BME280;4111;50.972;7.072;2022-08-19T06:54:18;100871.13;;;21.19;87.73
8140;BME280;4111;50.972;7.072;2022-08-19T06:56:46;100866.31;;;21.25;87.51
8140;BME280;4111;50.972;7.072;2022-08-19T06:59:19;100874.78;;;21.29;87.51
8140;BME280;4111;50.972;7.072;2022-08-19T07:01:49;100876.28;;;21.35;87.17
8140;BME280;4111;50.972;7.072;2022-08-19T07:04:20;100874.00;;;21.37;87.11
8140;BME280;4111;50.972;7.072;2022-08-19T07:06:47;100878.88;;;21.40;86.72
8140;BME280;4111;50.972;7.072;2022-08-19T07:09:21;100879.28;;;21.47;86.75
8140;BME280;4111;50.972;7.072;2022-08-19T07:11:49;100882.53;;;21.49;86.61
8140;BME280;4111;50.972;7.072;2022-08-19T07:14:18;100883.06;;;21.60;86.53
8140;BME280;4111;50.972;7.072;2022-08-19T07:16:47;100887.00;;;21.68;86.10
8140;BME280;4111;50.972;7.072;2022-08-19T07:19:15;100891.13;;;21.79;85.81
8140;BME280;4111;50.972;7.072;2022-08-19T07:21:45;100887.09;;;21.85;85.61
8140;BME280;4111;50.972;7.072;2022-08-19T07:24:12;100897.03;;;21.86;85.21
8140;BME280;4111;50.972;7.072;2022-08-19T07:26:41;100889.38;;;21.92;84.98
8140;BME280;4111;50.972;7.072;2022-08-19T07:29:09;100889.94;;;22.03;84.79
8140;BME280;4111;50.972;7.072;2022-08-19T07:31:36;100895.03;;;22.18;84.51
8140;BME280;4111;50.972;7.072;2022-08-19T07:34:06;100895.88;;;22.27;84.38
8140;BME280;4111;50.972;7.072;2022-08-19T07:36:35;100901.25;;;22.32;84.22
8140;BME280;4111;50.972;7.072;2022-08-19T07:39:06;100906.47;;;22.34;83.92
8140;BME280;4111;50.972;7.072;2022-08-19T07:41:35;100905.81;;;22.28;83.49
8140;BME280;4111;50.972;7.072;2022-08-19T07:44:04;100904.38;;;22.40;83.66
8140;BME280;4111;50.972;7.072;2022-08-19T07:46:32;100913.84;;;22.56;83.47
8140;BME280;4111;50.972;7.072;2022-08-19T07:48:59;100911.06;;;22.65;83.08
8140;BME280;4111;50.972;7.072;2022-08-19T07:51:27;100914.81;;;22.69;82.23
8140;BME280;4111;50.972;7.072;2022-08-19T07:54:02;100920.19;;;22.65;82.29
8140;BME280;4111;50.972;7.072;2022-08-19T07:56:29;100916.78;;;22.77;81.89
8140;BME280;4111;50.972;7.072;2022-08-19T07:58:56;100914.50;;;22.88;81.75
8140;BME280;4111;50.972;7.072;2022-08-19T08:01:26;100917.44;;;22.91;81.36
8140;BME280;4111;50.972;7.072;2022-08-19T08:03:55;100924.81;;;23.05;81.11
8140;BME280;4111;50.972;7.072;2022-08-19T08:06:42;100924.81;;;23.05;80.52
8140;BME280;4111;50.972;7.072;2022-08-19T08:09:34;100934.03;;;23.00;79.85
8140;BME280;4111;50.972;7.072;2022-08-19T08:12:11;100931.47;;;23.12;79.76
8140;BME280;4111;50.972;7.072;2022-08-19T08:15:00;100938.63;;;23.22;79.32
8140;BME280;4111;50.972;7.072;2022-08-19T08:17:34;100936.34;;;23.15;78.71
8140;BME280;4111;50.972;7.072;2022-08-19T08:20:17;100936.69;;;23.23;78.03
8140;BME280;4111;50.972;7.072;2022-08-19T08:22:46;100937.97;;;23.25;77.73
8140;BME280;4111;50.972;7.072;2022-08-19T08:25:32;100938.97;;;23.21;76.84
8140;BME280;4111;50.972;7.072;2022-08-19T08:27:59;100952.31;;;23.19;76.66
8140;BME280;4111;50.972;7.072;2022-08-19T08:30:27;100946.47;;;23.11;76.34
8140;BME280;4111;50.972;7.072;2022-08-19T08:32:58;100946.63;;;23.15;76.61
8140;BME280;4111;50.972;7.072;2022-08-19T08:35:25;100945.94;;;23.18;76.43
8140;BME280;4111;50.972;7.072;2022-08-19T08:37:53;100946.13;;;23.22;76.14
8140;BME280;4111;50.972;7.072;2022-08-19T08:40:47;100948.72;;;23.27;75.98
8140;BME280;4111;50.972;7.072;2022-08-19T08:43:29;100938.94;;;23.38;75.45
8140;BME280;4111;50.972;7.072;2022-08-19T08:46:01;100944.78;;;23.45;75.23
8140;BME280;4111;50.972;7.072;2022-08-19T08:48:52;100930.75;;;23.50;74.83
8140;BME280;4111;50.972;7.072;2022-08-19T08:51:24;100932.53;;;23.64;74.98
8140;BME280;4111;50.972;7.072;2022-08-19T08:54:02;100932.50;;;23.72;74.66
8140;BME280;4111;50.972;7.072;2022-08-19T08:56:31;100936.91;;;23.82;74.55
8140;BME280;4111;50.972;7.072;2022-08-19T08:59:19;100940.56;;;24.04;73.99
8140;BME280;4111;50.972;7.072;2022-08-19T09:01:47;100940.00;;;24.19;73.23
8140;BME280;4111;50.972;7.072;2022-08-19T09:04:14;100934.72;;;24.26;72.79
8140;BME280;4111;50.972;7.072;2022-08-19T09:09:34;100937.38;;;25.37;69.98
8140;BME280;4111;50.972;7.072;2022-08-19T09:12:10;100935.13;;;25.63;69.15
8140;BME280;4111;50.972;7.072;2022-08-19T09:14:53;100940.25;;;25.86;67.41
8140;BME280;4111;50.972;7.072;2022-08-19T09:17:25;100951.22;;;25.91;66.94
8140;BME280;4111;50.972;7.072;2022-08-19T09:20:20;100931.59;;;25.87;66.49
8140;BME280;4111;50.972;7.072;2022-08-19T09:22:47;100941.34;;;26.06;66.18
8140;BME280;4111;50.972;7.072;2022-08-19T09:25:18;100933.69;;;26.27;65.23
8140;BME280;4111;50.972;7.072;2022-08-19T09:27:55;100933.47;;;26.33;64.93
8140;BME280;4111;50.972;7.072;2022-08-19T09:30:34;100933.19;;;26.50;64.89
8140;BME280;4111;50.972;7.072;2022-08-19T09:33:04;100932.06;;;26.63;63.94
8140;BME280;4111;50.972;7.072;2022-08-19T09:35:32;100923.91;;;26.70;63.17
8140;BME280;4111;50.972;7.072;2022-08-19T09:38:18;100930.78;;;27.01;62.16
8140;BME280;4111;50.972;7.072;2022-08-19T09:40:45;100928.94;;;26.93;61.93
8140;BME280;4111;50.972;7.072;2022-08-19T09:43:11;100924.25;;;27.09;62.20
8140;BME280;4111;50.972;7.072;2022-08-19T09:45:39;100919.69;;;26.89;62.07
8140;BME280;4111;50.972;7.072;2022-08-19T09:48:06;100927.22;;;27.17;61.58
8140;BME280;4111;50.972;7.072;2022-08-19T09:50:32;100922.16;;;27.06;61.32
8140;BME280;4111;50.972;7.072;2022-08-19T09:53:17;100921.31;;;26.78;61.83
8140;BME280;4111;50.972;7.072;2022-08-19T09:55:44;100926.22;;;27.09;61.79
8140;BME280;4111;50.972;7.072;2022-08-19T09:58:11;100909.56;;;27.25;61.11
8140;BME280;4111;50.972;7.072;2022-08-19T10:00:38;100907.25;;;27.43;60.52
8140;BME280;4111;50.972;7.072;2022-08-19T10:03:04;100917.81;;;27.65;58.80
8140;BME280;4111;50.972;7.072;2022-08-19T10:05:32;100921.78;;;27.80;58.11
8140;BME280;4111;50.972;7.072;2022-08-19T10:08:29;100914.53;;;27.92;57.77
8140;BME280;4111;50.972;7.072;2022-08-19T10:10:56;100908.91;;;28.23;56.54
8140;BME280;4111;50.972;7.072;2022-08-19T10:13:27;100902.88;;;28.21;56.19
8140;BME280;4111;50.972;7.072;2022-08-19T10:15:56;100907.28;;;28.22;55.39
8140;BME280;4111;50.972;7.072;2022-08-19T10:18:24;100901.38;;;27.92;55.60
8140;BME280;4111;50.972;7.072;2022-08-19T10:20:51;100914.03;;;28.21;55.58
8140;BME280;4111;50.972;7.072;2022-08-19T10:23:20;100912.81;;;28.03;54.21
8140;BME280;4111;50.972;7.072;2022-08-19T10:25:49;100921.06;;;27.83;54.31
8140;BME280;4111;50.972;7.072;2022-08-19T10:28:15;100918.78;;;27.41;54.90
8140;BME280;4111;50.972;7.072;2022-08-19T10:30:45;100927.06;;;27.09;54.84
8140;BME280;4111;50.972;7.072;2022-08-19T10:33:12;100923.53;;;26.84;55.37
8140;BME280;4111;50.972;7.072;2022-08-19T10:35:40;100923.88;;;26.83;55.12
8140;BME280;4111;50.972;7.072;2022-08-19T10:38:22;100918.94;;;27.04;55.15
8140;BME280;4111;50.972;7.072;2022-08-19T10:40:58;100918.72;;;26.97;55.38
8140;BME280;4111;50.972;7.072;2022-08-19T10:43:32;100912.84;;;26.86;55.42
8140;BME280;4111;50.972;7.072;2022-08-19T10:46:06;100912.63;;;26.79;55.60
8140;BME280;4111;50.972;7.072;2022-08-19T10:48:40;100913.47;;;26.67;55.37
8140;BME280;4111;50.972;7.072;2022-08-19T10:51:07;100903.63;;;26.45;55.66
8140;BME280;4111;50.972;7.072;2022-08-19T10:53:53;100905.63;;;26.33;56.20
8140;BME280;4111;50.972;7.072;2022-08-19T10:56:20;100903.31;;;26.35;56.26
8140;BME280;4111;50.972;7.072;2022-08-19T10:59:06;100897.25;;;26.45;56.56
8140;BME280;4111;50.972;7.072;2022-08-19T11:01:33;100903.06;;;26.40;56.60
8140;BME280;4111;50.972;7.072;2022-08-19T11:04:01;100902.41;;;26.30;55.94
8140;BME280;4111;50.972;7.072;2022-08-19T11:06:28;100888.22;;;26.36;56.29
8140;BME280;4111;50.972;7.072;2022-08-19T11:08:56;100885.78;;;26.34;55.99
8140;BME280;4111;50.972;7.072;2022-08-19T11:11:23;100879.41;;;26.34;56.08
8140;BME280;4111;50.972;7.072;2022-08-19T11:13:50;100888.69;;;26.25;56.55
8140;BME280;4111;50.972;7.072;2022-08-19T11:16:19;100881.25;;;26.42;56.39
8140;BME280;4111;50.972;7.072;2022-08-19T11:18:49;100889.47;;;26.50;55.92
8140;BME280;4111;50.972;7.072;2022-08-19T11:23:47;100874.50;;;26.55;55.95
8140;BME280;4111;50.972;7.072;2022-08-19T11:26:14;100870.91;;;26.67;56.15
8140;BME280;4111;50.972;7.072;2022-08-19T11:28:42;100875.19;;;26.64;55.64
8140;BME280;4111;50.972;7.072;2022-08-19T11:31:15;100879.59;;;26.65;55.73
8140;BME280;4111;50.972;7.072;2022-08-19T11:33:42;100884.38;;;26.65;55.92
8140;BME280;4111;50.972;7.072;2022-08-19T11:36:13;100875.44;;;26.59;55.94
8140;BME280;4111;50.972;7.072;2022-08-19T11:38:41;100876.38;;;26.51;55.99
8140;BME280;4111;50.972;7.072;2022-08-19T11:41:08;100875.28;;;26.56;56.12
8140;BME280;4111;50.972;7.072;2022-08-19T11:43:35;100876.25;;;26.47;55.52
8140;BME280;4111;50.972;7.072;2022-08-19T11:46:07;100871.38;;;26.57;55.41
8140;BME280;4111;50.972;7.072;2022-08-19T11:48:34;100874.59;;;26.71;55.45
8140;BME280;4111;50.972;7.072;2022-08-19T11:51:05;100884.19;;;26.86;55.06
8140;BME280;4111;50.972;7.072;2022-08-19T11:53:33;100878.41;;;26.79;54.70
8140;BME280;4111;50.972;7.072;2022-08-19T11:56:01;100878.28;;;26.75;53.90
8140;BME280;4111;50.972;7.072;2022-08-19T11:58:29;100876.19;;;26.84;54.07
8140;BME280;4111;50.972;7.072;2022-08-19T12:00:56;100867.41;;;26.98;53.91
8140;BME280;4111;50.972;7.072;2022-08-19T12:03:23;100863.72;;;26.94;54.12
8140;BME280;4111;50.972;7.072;2022-08-19T12:05:50;100858.72;;;26.87;54.27
8140;BME280;4111;50.972;7.072;2022-08-19T12:08:17;100873.03;;;26.86;54.29
8140;BME280;4111;50.972;7.072;2022-08-19T12:10:44;100863.03;;;26.85;53.59
8140;BME280;4111;50.972;7.072;2022-08-19T12:13:12;100866.03;;;26.92;53.48
8140;BME280;4111;50.972;7.072;2022-08-19T12:15:46;100869.84;;;27.00;52.85
8140;BME280;4111;50.972;7.072;2022-08-19T12:18:12;100874.44;;;27.08;52.87
8140;BME280;4111;50.972;7.072;2022-08-19T12:20:43;100871.75;;;27.12;52.31
8140;BME280;4111;50.972;7.072;2022-08-19T12:23:09;100872.72;;;27.03;52.26
8140;BME280;4111;50.972;7.072;2022-08-19T12:25:42;100872.63;;;27.00;52.05
8140;BME280;4111;50.972;7.072;2022-08-19T12:28:22;100868.88;;;27.08;51.77
8140;BME280;4111;50.972;7.072;2022-08-19T12:30:49;100863.56;;;27.19;51.67
8140;BME280;4111;50.972;7.072;2022-08-19T12:33:18;100856.94;;;27.07;50.40
8140;BME280;4111;50.972;7.072;2022-08-19T12:35:45;100861.09;;;27.01;51.10
8140;BME280;4111;50.972;7.072;2022-08-19T12:38:13;100849.19;;;27.17;50.66
8140;BME280;4111;50.972;7.072;2022-08-19T12:40:41;100852.88;;;27.21;50.25
8140;BME280;4111;50.972;7.072;2022-08-19T12:43:08;100857.31;;;27.22;50.37
8140;BME280;4111;50.972;7.072;2022-08-19T12:45:34;100850.69;;;27.42;50.12
8140;BME280;4111;50.972;7.072;2022-08-19T12:48:03;100841.72;;;27.65;49.71
8140;BME280;4111;50.972;7.072;2022-08-19T12:50:50;100839.63;;;27.94;50.14
8140;BME280;4111;50.972;7.072;2022-08-19T12:53:17;100834.56;;;27.83;49.15
8140;BME280;4111;50.972;7.072;2022-08-19T12:55:43;100845.28;;;27.81;49.04
8140;BME280;4111;50.972;7.072;2022-08-19T12:58:10;100835.72;;;27.82;49.22
8140;BME280;4111;50.972;7.072;2022-08-19T13:00:39;100843.16;;;27.75;49.14
8140;BME280;4111;50.972;7.072;2022-08-19T13:03:05;100845.84;;;27.71;49.45
8140;BME280;4111;50.972;7.072;2022-08-19T13:05:32;100836.84;;;27.62;49.51
8140;BME280;4111;50.972;7.072;2022-08-19T13:08:02;100826.31;;;27.55;49.91
8140;BME280;4111;50.972;7.072;2022-08-19T13:10:32;100824.88;;;27.45;50.20
8140;BME280;4111;50.972;7.072;2022-08-19T13:13:03;100821.28;;;27.45;50.56
8140;BME280;4111;50.972;7.072;2022-08-19T13:15:37;100826.03;;;27.44;50.72
8140;BME280;4111;50.972;7.072;2022-08-19T13:18:07;100818.84;;;27.43;50.10
8140;BME280;4111;50.972;7.072;2022-08-19T13:20:36;100816.69;;;27.53;50.47
8140;BME280;4111;50.972;7.072;2022-08-19T13:23:04;100809.84;;;27.66;50.03
8140;BME280;4111;50.972;7.072;2022-08-19T13:25:31;100812.38;;;27.71;49.87
8140;BME280;4111;50.972;7.072;2022-08-19T13:27:57;100818.56;;;27.64;48.94
8140;BME280;4111;50.972;7.072;2022-08-19T13:30:25;100817.28;;;27.78;48.84
8140;BME280;4111;50.972;7.072;2022-08-19T13:33:10;100821.34;;;27.80;48.46
8140;BME280;4111;50.972;7.072;2022-08-19T13:35:44;100802.09;;;27.91;48.58